Flight Track Log - Related Links

Times and Time Zones

All times are in EDT time to prevent confusion due to time zone crossing. See the JZA8279 flight status page for this flight to view local times or setup timezone preferences in your user account.

Time Position Orientation Groundspeed Altitude Reporting Facility
EDT Latitude Longitude Course Direction KTS MPH feet Rate Location/Type
Fri 01:49:33 PM 54.3000 -130.5167 136° Southeast 120 138 1,600  Level Vancouver Center
Fri 01:50:33 PM 54.2667 -130.5500 210° Southwest 150 173 3,000 1,350 Climbing Vancouver Center
Fri 01:51:33 PM 54.2333 -130.5333 164° South 160 184 4,300 1,300 Climbing Vancouver Center
Fri 01:52:33 PM 54.2000 -130.4833 139° Southeast 170 196 5,600 1,200 Climbing Vancouver Center
Fri 01:53:33 PM 54.1500 -130.4167 142° Southeast 190 219 6,700 1,200 Climbing Vancouver Center
Fri 01:54:00 PM 53.9993 -129.9694 136° Southeast  Level Estimated
Fri 01:54:33 PM 54.1167 -130.3500 130° Southeast 190 219 8,000  Level Vancouver Center
Fri 01:55:33 PM 54.0833 -130.2833 130° Southeast 190 219 9,100 1,050 Climbing Vancouver Center
Fri 01:56:33 PM 54.0500 -130.2333 139° Southeast 190 219 10,100 1,000 Climbing Vancouver Center
Fri 01:57:33 PM 54.0000 -130.1333 130° Southeast 200 230 11,100 1,000 Climbing Vancouver Center
Fri 01:58:33 PM 53.9667 -130.0667 130° Southeast 200 230 12,100 1,000 Climbing Vancouver Center
Fri 01:59:33 PM 53.9167 -130.0000 142° Southeast 210 242 13,100 1,100 Climbing Vancouver Center
Fri 02:00:33 PM 53.9000 -129.9500 119° Southeast 210 242 14,300 1,100 Climbing Vancouver Center
Fri 02:01:33 PM 53.8500 -129.8500 130° Southeast 210 242 15,300 900 Climbing Vancouver Center
Fri 02:02:33 PM 53.8000 -129.7833 142° Southeast 220 253 16,100 950 Climbing Vancouver Center
Fri 02:03:33 PM 53.7500 -129.7000 135° Southeast 230 265 17,200 850 Climbing Vancouver Center
Fri 02:04:33 PM 53.7000 -129.6333 142° Southeast 230 265 17,800 700 Climbing Vancouver Center
Fri 02:05:33 PM 53.6667 -129.5500 124° Southeast 240 276 18,600 800 Climbing Vancouver Center
Fri 02:06:33 PM 53.6167 -129.4833 142° Southeast 240 276 19,400 750 Climbing Vancouver Center
Fri 02:07:33 PM 53.5667 -129.4000 135° Southeast 240 276 20,100 700 Climbing Vancouver Center
Fri 02:08:33 PM 53.5167 -129.3000 130° Southeast 250 288 20,800 450 Climbing Vancouver Center
Fri 02:09:33 PM 53.4667 -129.2333 142° Southeast 260 299 21,000 100 Climbing Vancouver Center
Fri 02:10:33 PM 53.4167 -129.1167 126° Southeast 290 334 21,000  Level Vancouver Center
Fri 02:11:33 PM 53.3500 -129.0333 143° Southeast 300 345 21,000  Level Vancouver Center
Fri 02:12:33 PM 53.2833 -128.9333 138° Southeast 310 357 21,000  Level Vancouver Center
Fri 02:13:33 PM 53.2333 -128.8500 135° Southeast 300 345 21,000  Level Vancouver Center
Fri 02:14:33 PM 53.1833 -128.7333 126° Southeast 300 345 21,000  Level Vancouver Center
Fri 02:15:33 PM 53.1167 -128.6333 138° Southeast 300 345 21,000  Level Vancouver Center
Fri 02:16:33 PM 53.0500 -128.5167 134° Southeast 300 345 21,000  Level Vancouver Center
Fri 02:17:33 PM 53.0000 -128.4333 135° Southeast 300 345 21,000  Level Vancouver Center
Fri 02:18:33 PM 52.9500 -128.3500 135° Southeast 310 357 21,000  Level Vancouver Center
Fri 02:19:33 PM 52.8833 -128.2500 138° Southeast 300 345 21,000  Level Vancouver Center
Fri 02:20:33 PM 52.8167 -128.1333 133° Southeast 300 345 21,000  Level Vancouver Center
Fri 02:21:33 PM 52.7500 -128.0500 143° Southeast 300 345 21,000  Level Vancouver Center
Fri 02:22:33 PM 52.6833 -127.9500 138° Southeast 300 345 21,000  Level Vancouver Center
Fri 02:23:33 PM 52.6333 -127.8333 125° Southeast 300 345 21,000  Level Vancouver Center
Fri 02:24:33 PM 52.5833 -127.7833 149° Southeast 300 345 21,000  Level Vancouver Center
Fri 02:25:33 PM 52.5167 -127.6667 133° Southeast 300 345 21,000  Level Vancouver Center
Fri 02:26:33 PM 52.4500 -127.5833 143° Southeast 300 345 21,000  Level Vancouver Center
Fri 02:27:33 PM 52.4000 -127.5000 135° Southeast 300 345 21,000  Level Vancouver Center
Fri 02:28:33 PM 52.3333 -127.3833 133° Southeast 300 345 21,000  Level Vancouver Center
Fri 02:29:33 PM 52.2833 -127.2833 129° Southeast 300 345 21,000  Level Vancouver Center
Fri 02:30:33 PM 52.2167 -127.2000 143° Southeast 300 345 21,000  Level Vancouver Center
Fri 02:31:33 PM 52.1500 -127.1167 142° Southeast 300 345 21,000  Level Vancouver Center
Fri 02:32:33 PM 52.1000 -127.0000 125° Southeast 300 345 21,000  Level Vancouver Center
Fri 02:33:33 PM 52.0333 -126.9167 142° Southeast 300 345 21,000  Level Vancouver Center
Fri 02:34:33 PM 51.9667 -126.8333 142° Southeast 300 345 21,000  Level Vancouver Center
Fri 02:35:33 PM 51.9000 -126.7500 142° Southeast 300 345 21,000  Level Vancouver Center
Fri 02:36:33 PM 51.8667 -126.6333 115° Southeast 290 334 21,000  Level Vancouver Center
Fri 02:37:33 PM 51.8000 -126.5500 142° Southeast 290 334 21,000  Level Vancouver Center
Fri 02:38:33 PM 51.7333 -126.4667 142° Southeast 290 334 21,000  Level Vancouver Center
Fri 02:39:33 PM 51.6833 -126.3833 134° Southeast 290 334 21,000  Level Vancouver Center
Fri 02:40:33 PM 51.6167 -126.3000 142° Southeast 290 334 21,000  Level Vancouver Center
Fri 02:41:33 PM 51.5500 -126.2167 142° Southeast 290 334 21,000  Level Vancouver Center
Fri 02:42:33 PM 51.4833 -126.1000 133° Southeast 290 334 21,000  Level Vancouver Center
Fri 02:43:33 PM 51.4333 -126.0167 134° Southeast 290 334 21,000  Level Vancouver Center
Fri 02:44:33 PM 51.3667 -125.9333 142° Southeast 290 334 21,000  Level Vancouver Center
Fri 02:45:33 PM 51.3000 -125.8500 142° Southeast 290 334 21,000  Level Vancouver Center
Fri 02:46:33 PM 51.2667 -125.7500 118° Southeast 290 334 21,000  Level Vancouver Center
Fri 02:47:33 PM 51.2000 -125.6667 142° Southeast 290 334 21,000  Level Vancouver Center
Fri 02:48:33 PM 51.1500 -125.5833 134° Southeast 290 334 21,000  Level Vancouver Center
Fri 02:49:33 PM 51.0833 -125.5000 142° Southeast 290 334 21,000  Level Vancouver Center
Fri 02:50:33 PM 51.0167 -125.4167 142° Southeast 290 334 21,000  Level Vancouver Center
Fri 02:51:33 PM 50.9667 -125.3333 134° Southeast 290 334 21,000  Level Vancouver Center
Fri 02:52:33 PM 50.9000 -125.2500 142° Southeast 290 334 21,000  Level Vancouver Center
Fri 02:53:33 PM 50.8333 -125.1500 137° Southeast 290 334 21,000  Level Vancouver Center
Fri 02:54:33 PM 50.7833 -125.0667 133° Southeast 290 334 21,000  Level Vancouver Center
Fri 02:55:33 PM 50.7167 -124.9833 142° Southeast 290 334 21,000  Level Vancouver Center
Fri 02:56:33 PM 50.6500 -124.9000 142° Southeast 290 334 21,000  Level Vancouver Center
Fri 02:57:33 PM 50.6000 -124.8167 133° Southeast 290 334 21,000  Level Vancouver Center
Fri 02:58:33 PM 50.5333 -124.7500 148° Southeast 290 334 21,000  Level Vancouver Center
Fri 02:59:33 PM 50.4667 -124.6333 132° Southeast 290 334 21,000  Level Vancouver Center
Fri 03:00:33 PM 50.4000 -124.5500 141° Southeast 290 334 21,000  Level Vancouver Center
Fri 03:01:33 PM 50.3500 -124.4833 140° Southeast 290 334 21,000  Level Vancouver Center
Fri 03:02:33 PM 50.2833 -124.4000 141° Southeast 290 334 21,000  Level Vancouver Center
Fri 03:03:33 PM 50.2167 -124.3167 141° Southeast 290 334 21,000 -149 Level Vancouver Center
Fri 03:04:34 PM 50.1667 -124.2167 128° Southeast 290 334 20,700 -450 Descending Vancouver Center
Fri 03:05:33 PM 50.1000 -124.1333 141° Southeast 300 345 20,100 -1,008 Descending Vancouver Center
Fri 03:06:33 PM 50.0333 -124.0667 147° Southeast 320 368 18,700 -1,500 Descending Vancouver Center
Fri 03:07:33 PM 49.9667 -123.9500 132° Southeast 330 380 17,100 -1,700 Descending Vancouver Center
Fri 03:08:33 PM 49.9000 -123.8833 147° Southeast 320 368 15,300 -1,450 Descending Vancouver Center
Fri 03:09:33 PM 49.8333 -123.7667 132° Southeast 310 357 14,200 -850 Descending Vancouver Center
Fri 03:10:33 PM 49.7667 -123.7000 147° Southeast 310 357 13,600 -300 Descending Vancouver Center
Fri 03:11:33 PM 49.6833 -123.6500 159° South 300 345 13,600 -50 Level Vancouver Center
Fri 03:12:33 PM 49.6167 -123.6000 154° Southeast 290 334 13,500 -400 Descending Vancouver Center
Fri 03:13:33 PM 49.5333 -123.5500 159° South 290 334 12,800 -700 Descending Vancouver Center
Fri 03:14:33 PM 49.4667 -123.4667 141° Southeast 300 345 12,100 -1,000 Descending Vancouver Center
Fri 03:15:33 PM 49.4000 -123.4167 154° Southeast 300 345 10,800 -1,400 Descending Vancouver Center
Fri 03:16:33 PM 49.3333 -123.3667 154° Southeast 290 334 9,300 -1,700 Descending Vancouver Center
Fri 03:17:33 PM 49.2667 -123.2833 141° Southeast 260 299 7,400 -1,700 Descending Vancouver Center
Fri 03:18:33 PM 49.2500 -123.1833 104° East 250 288 5,900 -1,200 Descending Vancouver Center
Fri 03:19:33 PM 49.2500 -123.1167 90° East 230 265 5,000 -446 Descending Vancouver Center
Fri 03:20:34 PM 49.2333 -123.0000 102° East 230 265 5,000 -50 Level Vancouver Center
Fri 03:21:33 PM 49.2167 -122.9000 104° East 210 242 4,900 -504 Descending Vancouver Center
Fri 03:22:33 PM 49.2000 -122.8500 117° Southeast 200 230 4,000 -843 Descending Vancouver Center
Fri 03:23:34 PM 49.1500 -122.8833 204° Southwest 190 219 3,200 -694 Descending Vancouver Center
Fri 03:24:34 PM 49.1667 -122.9500 291° West 190 219 2,600 -750 Descending Vancouver Center
Fri 03:25:34 PM 49.1667 -123.0333 270° West 180 207 1,700 -850 Descending Vancouver Center
Fri 03:26:34 PM 49.1667 -123.0833 270° West 160 184 900 -700 Descending Vancouver Center
Fri 03:27:34 PM 49.1833 -123.1333 297° West 110 127 300 -600 Descending Vancouver Center

Login

Don't have an account? Register now (free) for customized features, flight alerts, and more!